sensor_id;sensor_type;location;lat;lon;timestamp;temperature;humidity
53926;DHT22;39836;52.754;6.866;2023-02-11T00:01:10;6.30;79.40
53926;DHT22;39836;52.754;6.866;2023-02-11T00:03:36;6.30;79.40
53926;DHT22;39836;52.754;6.866;2023-02-11T00:06:05;6.30;79.30
53926;DHT22;39836;52.754;6.866;2023-02-11T00:08:34;6.30;79.40
53926;DHT22;39836;52.754;6.866;2023-02-11T00:10:59;6.30;79.40
53926;DHT22;39836;52.754;6.866;2023-02-11T00:13:25;6.30;79.40
53926;DHT22;39836;52.754;6.866;2023-02-11T00:15:52;6.30;79.40
53926;DHT22;39836;52.754;6.866;2023-02-11T00:18:18;6.30;79.30
53926;DHT22;39836;52.754;6.866;2023-02-11T00:20:44;6.30;79.40
53926;DHT22;39836;52.754;6.866;2023-02-11T00:23:10;6.30;79.30
53926;DHT22;39836;52.754;6.866;2023-02-11T00:25:43;6.40;79.40
53926;DHT22;39836;52.754;6.866;2023-02-11T00:28:09;6.40;79.40
53926;DHT22;39836;52.754;6.866;2023-02-11T00:30:35;6.40;79.40
53926;DHT22;39836;52.754;6.866;2023-02-11T00:33:02;6.40;79.50
53926;DHT22;39836;52.754;6.866;2023-02-11T00:35:28;6.40;79.50
53926;DHT22;39836;52.754;6.866;2023-02-11T00:37:54;6.40;79.50
53926;DHT22;39836;52.754;6.866;2023-02-11T00:40:20;6.30;79.50
53926;DHT22;39836;52.754;6.866;2023-02-11T00:42:46;6.30;79.60
53926;DHT22;39836;52.754;6.866;2023-02-11T00:45:12;6.30;79.60
53926;DHT22;39836;52.754;6.866;2023-02-11T00:47:37;6.40;79.60
53926;DHT22;39836;52.754;6.866;2023-02-11T00:50:04;6.40;79.60
53926;DHT22;39836;52.754;6.866;2023-02-11T00:52:31;6.40;79.70
53926;DHT22;39836;52.754;6.866;2023-02-11T00:54:56;6.40;79.70
53926;DHT22;39836;52.754;6.866;2023-02-11T00:57:22;6.40;79.70
53926;DHT22;39836;52.754;6.866;2023-02-11T00:59:48;6.40;79.90
53926;DHT22;39836;52.754;6.866;2023-02-11T01:02:15;6.30;79.80
53926;DHT22;39836;52.754;6.866;2023-02-11T01:04:41;6.30;79.80
53926;DHT22;39836;52.754;6.866;2023-02-11T01:07:07;6.30;79.80
53926;DHT22;39836;52.754;6.866;2023-02-11T01:09:33;6.30;79.80
53926;DHT22;39836;52.754;6.866;2023-02-11T01:11:59;6.30;79.90
53926;DHT22;39836;52.754;6.866;2023-02-11T01:14:26;6.30;79.90
53926;DHT22;39836;52.754;6.866;2023-02-11T01:16:52;6.30;79.90
53926;DHT22;39836;52.754;6.866;2023-02-11T01:19:17;6.30;80.00
53926;DHT22;39836;52.754;6.866;2023-02-11T01:21:43;6.30;80.00
53926;DHT22;39836;52.754;6.866;2023-02-11T01:24:08;6.30;80.00
53926;DHT22;39836;52.754;6.866;2023-02-11T01:26:34;6.30;80.10
53926;DHT22;39836;52.754;6.866;2023-02-11T01:29:00;6.30;80.00
53926;DHT22;39836;52.754;6.866;2023-02-11T01:31:26;6.30;80.10
53926;DHT22;39836;52.754;6.866;2023-02-11T01:33:52;6.20;80.00
53926;DHT22;39836;52.754;6.866;2023-02-11T01:36:17;6.30;80.10
53926;DHT22;39836;52.754;6.866;2023-02-11T01:38:43;6.30;80.00
53926;DHT22;39836;52.754;6.866;2023-02-11T01:41:11;6.30;80.00
53926;DHT22;39836;52.754;6.866;2023-02-11T01:43:40;6.30;80.00
53926;DHT22;39836;52.754;6.866;2023-02-11T01:48:45;6.30;80.10
53926;DHT22;39836;52.754;6.866;2023-02-11T01:51:20;6.30;80.10
53926;DHT22;39836;52.754;6.866;2023-02-11T01:53:47;6.30;80.10
53926;DHT22;39836;52.754;6.866;2023-02-11T01:56:33;6.20;80.10
53926;DHT22;39836;52.754;6.866;2023-02-11T02:02:25;6.30;80.10
53926;DHT22;39836;52.754;6.866;2023-02-11T02:04:56;6.30;80.10
53926;DHT22;39836;52.754;6.866;2023-02-11T02:07:31;6.30;80.10
53926;DHT22;39836;52.754;6.866;2023-02-11T02:10:04;6.30;80.10
53926;DHT22;39836;52.754;6.866;2023-02-11T02:12:32;6.20;80.00
53926;DHT22;39836;52.754;6.866;2023-02-11T02:15:27;6.30;80.00
53926;DHT22;39836;52.754;6.866;2023-02-11T02:17:58;6.30;80.00
53926;DHT22;39836;52.754;6.866;2023-02-11T02:20:31;6.30;80.10
53926;DHT22;39836;52.754;6.866;2023-02-11T02:36:27;6.20;80.20
53926;DHT22;39836;52.754;6.866;2023-02-11T02:39:08;6.20;80.10
53926;DHT22;39836;52.754;6.866;2023-02-11T02:41:36;6.20;80.20
53926;DHT22;39836;52.754;6.866;2023-02-11T02:44:03;6.30;80.20
53926;DHT22;39836;52.754;6.866;2023-02-11T02:46:33;6.30;80.30
53926;DHT22;39836;52.754;6.866;2023-02-11T02:49:00;6.30;80.30
53926;DHT22;39836;52.754;6.866;2023-02-11T03:02:34;6.40;80.30
53926;DHT22;39836;52.754;6.866;2023-02-11T03:10:22;6.50;80.40
53926;DHT22;39836;52.754;6.866;2023-02-11T03:12:50;6.50;80.40
53926;DHT22;39836;52.754;6.866;2023-02-11T03:15:19;6.40;80.30
53926;DHT22;39836;52.754;6.866;2023-02-11T03:17:48;6.40;80.20
53926;DHT22;39836;52.754;6.866;2023-02-11T03:20:17;6.50;80.40
53926;DHT22;39836;52.754;6.866;2023-02-11T03:22:57;6.50;80.30
53926;DHT22;39836;52.754;6.866;2023-02-11T03:25:29;6.40;80.30
53926;DHT22;39836;52.754;6.866;2023-02-11T03:28:06;6.40;80.40
53926;DHT22;39836;52.754;6.866;2023-02-11T03:30:48;6.50;80.40
53926;DHT22;39836;52.754;6.866;2023-02-11T03:36:18;6.50;80.40
53926;DHT22;39836;52.754;6.866;2023-02-11T03:38:49;6.50;80.40
53926;DHT22;39836;52.754;6.866;2023-02-11T03:41:19;6.50;80.40
53926;DHT22;39836;52.754;6.866;2023-02-11T03:43:52;6.50;80.40
53926;DHT22;39836;52.754;6.866;2023-02-11T03:46:22;6.50;80.40
53926;DHT22;39836;52.754;6.866;2023-02-11T03:48:51;6.50;80.40
53926;DHT22;39836;52.754;6.866;2023-02-11T03:51:20;6.50;80.40
53926;DHT22;39836;52.754;6.866;2023-02-11T03:53:46;6.50;80.50
53926;DHT22;39836;52.754;6.866;2023-02-11T03:56:21;6.50;80.50
53926;DHT22;39836;52.754;6.866;2023-02-11T03:58:48;6.50;80.50
53926;DHT22;39836;52.754;6.866;2023-02-11T04:01:14;6.50;80.60
53926;DHT22;39836;52.754;6.866;2023-02-11T04:03:40;6.50;80.60
53926;DHT22;39836;52.754;6.866;2023-02-11T04:06:06;6.40;80.70
53926;DHT22;39836;52.754;6.866;2023-02-11T04:08:32;6.40;80.70
53926;DHT22;39836;52.754;6.866;2023-02-11T04:10:58;6.50;80.80
53926;DHT22;39836;52.754;6.866;2023-02-11T04:13:24;6.40;80.80
53926;DHT22;39836;52.754;6.866;2023-02-11T04:15:49;6.50;80.80
53926;DHT22;39836;52.754;6.866;2023-02-11T04:18:15;6.40;80.80
53926;DHT22;39836;52.754;6.866;2023-02-11T04:20:40;6.50;81.00
53926;DHT22;39836;52.754;6.866;2023-02-11T04:23:06;6.50;80.90
53926;DHT22;39836;52.754;6.866;2023-02-11T04:25:32;6.40;80.90
53926;DHT22;39836;52.754;6.866;2023-02-11T04:27:57;6.50;81.00
53926;DHT22;39836;52.754;6.866;2023-02-11T04:30:23;6.40;81.00
53926;DHT22;39836;52.754;6.866;2023-02-11T04:32:49;6.50;81.00
53926;DHT22;39836;52.754;6.866;2023-02-11T04:35:15;6.50;81.20
53926;DHT22;39836;52.754;6.866;2023-02-11T04:37:40;6.50;81.20
53926;DHT22;39836;52.754;6.866;2023-02-11T04:40:07;6.40;81.20
53926;DHT22;39836;52.754;6.866;2023-02-11T04:42:32;6.50;81.20
53926;DHT22;39836;52.754;6.866;2023-02-11T04:44:58;6.40;81.20
53926;DHT22;39836;52.754;6.866;2023-02-11T04:47:24;6.40;81.30
53926;DHT22;39836;52.754;6.866;2023-02-11T04:49:49;6.50;81.30
53926;DHT22;39836;52.754;6.866;2023-02-11T04:52:15;6.40;81.30
53926;DHT22;39836;52.754;6.866;2023-02-11T04:54:41;6.40;81.30
53926;DHT22;39836;52.754;6.866;2023-02-11T04:57:06;6.40;81.30
53926;DHT22;39836;52.754;6.866;2023-02-11T04:59:32;6.50;81.30
53926;DHT22;39836;52.754;6.866;2023-02-11T05:01:58;6.50;81.40
53926;DHT22;39836;52.754;6.866;2023-02-11T05:04:24;6.40;81.30
53926;DHT22;39836;52.754;6.866;2023-02-11T05:06:49;6.40;81.40
53926;DHT22;39836;52.754;6.866;2023-02-11T05:09:15;6.50;81.50
53926;DHT22;39836;52.754;6.866;2023-02-11T05:11:41;6.50;81.50
53926;DHT22;39836;52.754;6.866;2023-02-11T05:14:07;6.50;81.40
53926;DHT22;39836;52.754;6.866;2023-02-11T05:16:33;6.50;81.50
53926;DHT22;39836;52.754;6.866;2023-02-11T05:18:59;6.60;81.70
53926;DHT22;39836;52.754;6.866;2023-02-11T05:21:25;6.50;81.60
53926;DHT22;39836;52.754;6.866;2023-02-11T05:23:51;6.60;81.60
53926;DHT22;39836;52.754;6.866;2023-02-11T05:26:17;6.60;81.50
53926;DHT22;39836;52.754;6.866;2023-02-11T05:28:43;6.60;81.40
53926;DHT22;39836;52.754;6.866;2023-02-11T05:31:09;6.70;81.60
53926;DHT22;39836;52.754;6.866;2023-02-11T05:33:35;6.60;81.50
53926;DHT22;39836;52.754;6.866;2023-02-11T05:36:03;6.60;81.40
53926;DHT22;39836;52.754;6.866;2023-02-11T05:38:29;6.70;81.40
53926;DHT22;39836;52.754;6.866;2023-02-11T05:40:56;6.70;81.60
53926;DHT22;39836;52.754;6.866;2023-02-11T05:43:22;6.70;81.50
53926;DHT22;39836;52.754;6.866;2023-02-11T05:45:48;6.80;81.50
53926;DHT22;39836;52.754;6.866;2023-02-11T05:48:13;6.70;81.40
53926;DHT22;39836;52.754;6.866;2023-02-11T05:50:39;6.80;81.50
53926;DHT22;39836;52.754;6.866;2023-02-11T05:53:05;6.80;81.60
53926;DHT22;39836;52.754;6.866;2023-02-11T05:55:31;6.80;81.60
53926;DHT22;39836;52.754;6.866;2023-02-11T05:57:57;6.80;81.70
53926;DHT22;39836;52.754;6.866;2023-02-11T06:00:23;6.70;81.80
53926;DHT22;39836;52.754;6.866;2023-02-11T06:02:49;6.80;81.80
53926;DHT22;39836;52.754;6.866;2023-02-11T06:05:14;6.80;81.80
53926;DHT22;39836;52.754;6.866;2023-02-11T06:07:40;6.70;81.70
53926;DHT22;39836;52.754;6.866;2023-02-11T06:10:06;6.80;81.70
53926;DHT22;39836;52.754;6.866;2023-02-11T06:12:32;6.80;81.60
53926;DHT22;39836;52.754;6.866;2023-02-11T06:14:58;6.80;81.70
53926;DHT22;39836;52.754;6.866;2023-02-11T06:17:23;6.80;81.70
53926;DHT22;39836;52.754;6.866;2023-02-11T06:19:50;6.80;81.80
53926;DHT22;39836;52.754;6.866;2023-02-11T06:22:15;6.80;81.80
53926;DHT22;39836;52.754;6.866;2023-02-11T06:24:41;6.80;81.90
53926;DHT22;39836;52.754;6.866;2023-02-11T06:27:07;6.80;81.90
53926;DHT22;39836;52.754;6.866;2023-02-11T06:29:33;6.80;81.90
53926;DHT22;39836;52.754;6.866;2023-02-11T06:31:58;6.70;81.90
53926;DHT22;39836;52.754;6.866;2023-02-11T06:34:24;6.70;81.90
53926;DHT22;39836;52.754;6.866;2023-02-11T06:36:50;6.70;82.00
53926;DHT22;39836;52.754;6.866;2023-02-11T06:39:15;6.70;82.00
53926;DHT22;39836;52.754;6.866;2023-02-11T06:41:41;6.60;82.00
53926;DHT22;39836;52.754;6.866;2023-02-11T06:44:06;6.60;82.20
53926;DHT22;39836;52.754;6.866;2023-02-11T06:46:32;6.60;82.20
53926;DHT22;39836;52.754;6.866;2023-02-11T06:48:58;6.70;82.30
53926;DHT22;39836;52.754;6.866;2023-02-11T06:51:23;6.60;82.10
53926;DHT22;39836;52.754;6.866;2023-02-11T06:53:49;6.60;82.00
53926;DHT22;39836;52.754;6.866;2023-02-11T06:56:17;6.60;81.90
53926;DHT22;39836;52.754;6.866;2023-02-11T06:58:44;6.60;82.00
53926;DHT22;39836;52.754;6.866;2023-02-11T07:01:13;6.70;82.20
53926;DHT22;39836;52.754;6.866;2023-02-11T07:03:42;6.60;82.30
53926;DHT22;39836;52.754;6.866;2023-02-11T07:06:11;6.60;82.30
53926;DHT22;39836;52.754;6.866;2023-02-11T07:08:37;6.70;82.40
53926;DHT22;39836;52.754;6.866;2023-02-11T07:11:19;6.70;82.40
53926;DHT22;39836;52.754;6.866;2023-02-11T07:13:45;6.70;82.60
53926;DHT22;39836;52.754;6.866;2023-02-11T07:16:13;6.60;82.50
53926;DHT22;39836;52.754;6.866;2023-02-11T07:18:39;6.70;82.50
53926;DHT22;39836;52.754;6.866;2023-02-11T07:21:10;6.70;82.50
53926;DHT22;39836;52.754;6.866;2023-02-11T07:23:36;6.70;82.50
53926;DHT22;39836;52.754;6.866;2023-02-11T07:26:08;6.70;82.50
53926;DHT22;39836;52.754;6.866;2023-02-11T07:28:35;6.70;82.60
53926;DHT22;39836;52.754;6.866;2023-02-11T07:31:08;6.70;82.50
53926;DHT22;39836;52.754;6.866;2023-02-11T07:33:34;6.70;82.50
53926;DHT22;39836;52.754;6.866;2023-02-11T07:36:01;6.80;82.60
53926;DHT22;39836;52.754;6.866;2023-02-11T07:38:26;6.80;82.60
53926;DHT22;39836;52.754;6.866;2023-02-11T07:40:52;6.80;82.60
53926;DHT22;39836;52.754;6.866;2023-02-11T07:43:18;6.80;82.40
53926;DHT22;39836;52.754;6.866;2023-02-11T07:45:44;6.80;82.50
53926;DHT22;39836;52.754;6.866;2023-02-11T07:48:09;6.90;82.50
53926;DHT22;39836;52.754;6.866;2023-02-11T07:50:35;6.90;82.50
53926;DHT22;39836;52.754;6.866;2023-02-11T07:53:02;7.00;82.50
53926;DHT22;39836;52.754;6.866;2023-02-11T07:55:27;7.00;82.40
53926;DHT22;39836;52.754;6.866;2023-02-11T07:57:53;7.00;82.40
53926;DHT22;39836;52.754;6.866;2023-02-11T08:00:19;7.00;82.40
53926;DHT22;39836;52.754;6.866;2023-02-11T08:02:44;7.10;82.50
53926;DHT22;39836;52.754;6.866;2023-02-11T08:05:10;7.10;82.40
53926;DHT22;39836;52.754;6.866;2023-02-11T08:07:36;7.10;82.40
53926;DHT22;39836;52.754;6.866;2023-02-11T08:10:01;7.10;82.40
53926;DHT22;39836;52.754;6.866;2023-02-11T08:12:27;7.10;82.30
53926;DHT22;39836;52.754;6.866;2023-02-11T08:14:53;7.20;82.40
53926;DHT22;39836;52.754;6.866;2023-02-11T08:17:18;7.20;82.30
53926;DHT22;39836;52.754;6.866;2023-02-11T08:19:44;7.20;82.30
53926;DHT22;39836;52.754;6.866;2023-02-11T08:22:10;7.20;82.30
53926;DHT22;39836;52.754;6.866;2023-02-11T08:24:35;7.20;82.30
53926;DHT22;39836;52.754;6.866;2023-02-11T08:27:01;7.20;82.30
53926;DHT22;39836;52.754;6.866;2023-02-11T08:29:27;7.20;82.30
53926;DHT22;39836;52.754;6.866;2023-02-11T08:31:52;7.30;82.30
53926;DHT22;39836;52.754;6.866;2023-02-11T08:34:18;7.30;82.20
53926;DHT22;39836;52.754;6.866;2023-02-11T08:36:45;7.30;82.20
53926;DHT22;39836;52.754;6.866;2023-02-11T08:39:16;7.30;82.20
53926;DHT22;39836;52.754;6.866;2023-02-11T08:41:42;7.40;82.20
53926;DHT22;39836;52.754;6.866;2023-02-11T08:44:08;7.40;82.20
53926;DHT22;39836;52.754;6.866;2023-02-11T08:46:34;7.40;82.10
53926;DHT22;39836;52.754;6.866;2023-02-11T08:49:00;7.50;82.10
53926;DHT22;39836;52.754;6.866;2023-02-11T08:51:27;7.50;82.10
53926;DHT22;39836;52.754;6.866;2023-02-11T08:53:55;7.50;82.10
53926;DHT22;39836;52.754;6.866;2023-02-11T08:56:21;7.50;82.00
53926;DHT22;39836;52.754;6.866;2023-02-11T08:58:48;7.60;82.00
53926;DHT22;39836;52.754;6.866;2023-02-11T09:01:23;7.60;81.90
53926;DHT22;39836;52.754;6.866;2023-02-11T09:03:49;7.60;81.90
53926;DHT22;39836;52.754;6.866;2023-02-11T09:06:15;7.60;81.90
53926;DHT22;39836;52.754;6.866;2023-02-11T09:08:45;7.70;81.90
53926;DHT22;39836;52.754;6.866;2023-02-11T09:11:11;7.70;81.90
53926;DHT22;39836;52.754;6.866;2023-02-11T09:13:39;7.70;81.80
53926;DHT22;39836;52.754;6.866;2023-02-11T09:16:05;7.80;81.90
53926;DHT22;39836;52.754;6.866;2023-02-11T09:18:32;7.80;81.80
53926;DHT22;39836;52.754;6.866;2023-02-11T09:21:05;7.80;81.80
53926;DHT22;39836;52.754;6.866;2023-02-11T09:23:31;7.80;81.80
53926;DHT22;39836;52.754;6.866;2023-02-11T09:28:44;7.90;81.70
53926;DHT22;39836;52.754;6.866;2023-02-11T09:31:13;7.90;81.60
53926;DHT22;39836;52.754;6.866;2023-02-11T09:33:40;7.90;81.60
53926;DHT22;39836;52.754;6.866;2023-02-11T09:36:16;8.00;81.60
53926;DHT22;39836;52.754;6.866;2023-02-11T09:38:43;8.00;81.60
53926;DHT22;39836;52.754;6.866;2023-02-11T09:44:02;8.00;81.50
53926;DHT22;39836;52.754;6.866;2023-02-11T09:46:34;8.10;81.40
53926;DHT22;39836;52.754;6.866;2023-02-11T09:49:01;8.10;81.40
53926;DHT22;39836;52.754;6.866;2023-02-11T09:52:05;8.10;81.50
53926;DHT22;39836;52.754;6.866;2023-02-11T09:57:17;8.20;81.40
53926;DHT22;39836;52.754;6.866;2023-02-11T09:59:43;8.20;81.40
53926;DHT22;39836;52.754;6.866;2023-02-11T10:02:21;8.20;81.40
53926;DHT22;39836;52.754;6.866;2023-02-11T10:05:08;8.20;81.40
53926;DHT22;39836;52.754;6.866;2023-02-11T10:07:37;8.30;81.30
53926;DHT22;39836;52.754;6.866;2023-02-11T10:10:31;8.30;81.30
53926;DHT22;39836;52.754;6.866;2023-02-11T10:16:08;8.40;81.00
53926;DHT22;39836;52.754;6.866;2023-02-11T10:24:29;8.50;80.80
53926;DHT22;39836;52.754;6.866;2023-02-11T10:26:55;8.60;80.90
53926;DHT22;39836;52.754;6.866;2023-02-11T10:29:44;8.60;80.90
53926;DHT22;39836;52.754;6.866;2023-02-11T10:35:20;8.60;80.50
53926;DHT22;39836;52.754;6.866;2023-02-11T10:37:46;8.70;80.60
53926;DHT22;39836;52.754;6.866;2023-02-11T10:40:23;8.70;80.60
53926;DHT22;39836;52.754;6.866;2023-02-11T10:42:52;8.70;80.50
53926;DHT22;39836;52.754;6.866;2023-02-11T10:45:34;8.80;80.50
53926;DHT22;39836;52.754;6.866;2023-02-11T10:48:03;8.80;80.60
53926;DHT22;39836;52.754;6.866;2023-02-11T10:50:32;8.90;80.60
53926;DHT22;39836;52.754;6.866;2023-02-11T10:55:52;9.00;80.50
53926;DHT22;39836;52.754;6.866;2023-02-11T10:58:30;9.00;80.30
53926;DHT22;39836;52.754;6.866;2023-02-11T11:00:58;9.10;80.50
53926;DHT22;39836;52.754;6.866;2023-02-11T11:03:28;9.10;80.30
53926;DHT22;39836;52.754;6.866;2023-02-11T11:05:59;9.10;80.40
53926;DHT22;39836;52.754;6.866;2023-02-11T11:09:00;9.20;80.40
53926;DHT22;39836;52.754;6.866;2023-02-11T11:11:26;9.20;80.30
53926;DHT22;39836;52.754;6.866;2023-02-11T11:16:30;9.20;80.10
53926;DHT22;39836;52.754;6.866;2023-02-11T11:21:52;9.30;80.10
53926;DHT22;39836;52.754;6.866;2023-02-11T11:26:52;9.40;80.00
53926;DHT22;39836;52.754;6.866;2023-02-11T11:29:23;9.50;80.20
53926;DHT22;39836;52.754;6.866;2023-02-11T11:31:54;9.60;80.20
53926;DHT22;39836;52.754;6.866;2023-02-11T11:37:00;9.60;80.00
53926;DHT22;39836;52.754;6.866;2023-02-11T11:39:31;9.60;79.90
53926;DHT22;39836;52.754;6.866;2023-02-11T11:42:12;9.60;79.80
53926;DHT22;39836;52.754;6.866;2023-02-11T11:44:58;9.60;79.80
53926;DHT22;39836;52.754;6.866;2023-02-11T11:47:31;9.60;79.80
53926;DHT22;39836;52.754;6.866;2023-02-11T11:53:02;9.60;79.60
53926;DHT22;39836;52.754;6.866;2023-02-11T11:57:54;9.50;79.40
53926;DHT22;39836;52.754;6.866;2023-02-11T12:00:25;9.40;79.40
53926;DHT22;39836;52.754;6.866;2023-02-11T12:08:48;9.30;79.30
53926;DHT22;39836;52.754;6.866;2023-02-11T12:19:46;9.30;79.40
53926;DHT22;39836;52.754;6.866;2023-02-11T12:25:33;9.20;79.50
53926;DHT22;39836;52.754;6.866;2023-02-11T12:44:54;9.50;79.40
53926;DHT22;39836;52.754;6.866;2023-02-11T12:53:15;9.60;79.30
53926;DHT22;39836;52.754;6.866;2023-02-11T12:55:48;9.60;79.30
53926;DHT22;39836;52.754;6.866;2023-02-11T12:58:20;9.60;79.20
53926;DHT22;39836;52.754;6.866;2023-02-11T13:01:08;9.60;79.30
53926;DHT22;39836;52.754;6.866;2023-02-11T13:03:49;9.60;79.30
53926;DHT22;39836;52.754;6.866;2023-02-11T13:06:19;9.60;79.30
53926;DHT22;39836;52.754;6.866;2023-02-11T13:08:50;9.70;79.20
53926;DHT22;39836;52.754;6.866;2023-02-11T13:11:25;9.70;79.10
53926;DHT22;39836;52.754;6.866;2023-02-11T13:14:00;9.70;79.10
53926;DHT22;39836;52.754;6.866;2023-02-11T13:19:17;9.70;79.30
53926;DHT22;39836;52.754;6.866;2023-02-11T13:21:59;9.70;79.20
53926;DHT22;39836;52.754;6.866;2023-02-11T13:35:37;9.70;79.10
53926;DHT22;39836;52.754;6.866;2023-02-11T13:40:41;9.80;79.10
53926;DHT22;39836;52.754;6.866;2023-02-11T13:43:23;9.80;79.20
53926;DHT22;39836;52.754;6.866;2023-02-11T13:45:51;9.70;79.20
53926;DHT22;39836;52.754;6.866;2023-02-11T13:48:24;9.80;79.20
53926;DHT22;39836;52.754;6.866;2023-02-11T13:50:59;9.90;79.10
53926;DHT22;39836;52.754;6.866;2023-02-11T13:53:27;9.90;78.90
53926;DHT22;39836;52.754;6.866;2023-02-11T13:56:05;10.00;79.00
53926;DHT22;39836;52.754;6.866;2023-02-11T13:58:37;10.00;79.00
53926;DHT22;39836;52.754;6.866;2023-02-11T14:01:10;10.10;78.90
53926;DHT22;39836;52.754;6.866;2023-02-11T14:04:23;10.10;78.90
53926;DHT22;39836;52.754;6.866;2023-02-11T14:13:25;10.20;78.80
53926;DHT22;39836;52.754;6.866;2023-02-11T14:18:37;10.20;78.70
53926;DHT22;39836;52.754;6.866;2023-02-11T14:21:22;10.20;78.70
53926;DHT22;39836;52.754;6.866;2023-02-11T14:23:51;10.20;78.70
53926;DHT22;39836;52.754;6.866;2023-02-11T14:31:44;10.30;78.60
53926;DHT22;39836;52.754;6.866;2023-02-11T14:34:50;10.20;78.60
53926;DHT22;39836;52.754;6.866;2023-02-11T14:42:42;10.10;78.80
53926;DHT22;39836;52.754;6.866;2023-02-11T14:45:12;10.10;78.80
53926;DHT22;39836;52.754;6.866;2023-02-11T14:47:47;10.10;78.80
53926;DHT22;39836;52.754;6.866;2023-02-11T14:50:39;10.00;78.80
53926;DHT22;39836;52.754;6.866;2023-02-11T14:53:09;10.00;78.80
53926;DHT22;39836;52.754;6.866;2023-02-11T14:55:40;9.90;78.80
53926;DHT22;39836;52.754;6.866;2023-02-11T15:03:29;10.00;79.00
53926;DHT22;39836;52.754;6.866;2023-02-11T15:05:57;9.90;78.90
53926;DHT22;39836;52.754;6.866;2023-02-11T15:08:24;9.90;78.90
53926;DHT22;39836;52.754;6.866;2023-02-11T15:10:50;9.90;78.90
53926;DHT22;39836;52.754;6.866;2023-02-11T15:13:21;10.00;78.80
53926;DHT22;39836;52.754;6.866;2023-02-11T15:15:54;10.00;78.90
53926;DHT22;39836;52.754;6.866;2023-02-11T15:18:24;9.90;78.90
53926;DHT22;39836;52.754;6.866;2023-02-11T15:20:52;9.90;78.90
53926;DHT22;39836;52.754;6.866;2023-02-11T15:23:26;9.90;78.90
53926;DHT22;39836;52.754;6.866;2023-02-11T15:25:52;9.90;79.00
53926;DHT22;39836;52.754;6.866;2023-02-11T15:28:23;9.80;79.00
53926;DHT22;39836;52.754;6.866;2023-02-11T15:33:22;9.70;79.10
53926;DHT22;39836;52.754;6.866;2023-02-11T15:35:49;9.70;79.20
53926;DHT22;39836;52.754;6.866;2023-02-11T15:38:16;9.70;79.10
53926;DHT22;39836;52.754;6.866;2023-02-11T15:40:55;9.70;79.10
53926;DHT22;39836;52.754;6.866;2023-02-11T15:43:21;9.70;79.00
53926;DHT22;39836;52.754;6.866;2023-02-11T15:48:20;9.70;78.90
53926;DHT22;39836;52.754;6.866;2023-02-11T15:50:56;9.60;78.90
53926;DHT22;39836;52.754;6.866;2023-02-11T15:53:39;9.60;79.00
53926;DHT22;39836;52.754;6.866;2023-02-11T15:56:11;9.60;79.00
53926;DHT22;39836;52.754;6.866;2023-02-11T15:58:39;9.50;78.90
53926;DHT22;39836;52.754;6.866;2023-02-11T16:01:06;9.50;78.90
53926;DHT22;39836;52.754;6.866;2023-02-11T16:03:32;9.50;78.90
53926;DHT22;39836;52.754;6.866;2023-02-11T16:06:25;9.50;78.90
53926;DHT22;39836;52.754;6.866;2023-02-11T16:08:57;9.50;79.00
53926;DHT22;39836;52.754;6.866;2023-02-11T16:11:29;9.40;79.00
53926;DHT22;39836;52.754;6.866;2023-02-11T16:13:56;9.40;79.10
53926;DHT22;39836;52.754;6.866;2023-02-11T16:16:32;9.30;79.10
53926;DHT22;39836;52.754;6.866;2023-02-11T16:18:59;9.30;79.20
53926;DHT22;39836;52.754;6.866;2023-02-11T16:21:40;9.30;79.10
53926;DHT22;39836;52.754;6.866;2023-02-11T16:24:24;9.30;79.10
53926;DHT22;39836;52.754;6.866;2023-02-11T16:29:47;9.20;79.20
53926;DHT22;39836;52.754;6.866;2023-02-11T16:32:21;9.10;79.30
53926;DHT22;39836;52.754;6.866;2023-02-11T16:34:48;9.10;79.30
53926;DHT22;39836;52.754;6.866;2023-02-11T16:37:14;9.10;79.30
53926;DHT22;39836;52.754;6.866;2023-02-11T16:39:40;9.10;79.30
53926;DHT22;39836;52.754;6.866;2023-02-11T16:42:06;9.00;79.30
53926;DHT22;39836;52.754;6.866;2023-02-11T16:44:32;9.00;79.40
53926;DHT22;39836;52.754;6.866;2023-02-11T16:46:59;9.00;79.40
53926;DHT22;39836;52.754;6.866;2023-02-11T16:49:28;8.90;79.50
53926;DHT22;39836;52.754;6.866;2023-02-11T16:51:57;8.90;79.50
53926;DHT22;39836;52.754;6.866;2023-02-11T16:54:25;8.90;79.60
53926;DHT22;39836;52.754;6.866;2023-02-11T16:56:51;8.90;79.60
53926;DHT22;39836;52.754;6.866;2023-02-11T16:59:17;8.80;79.60
53926;DHT22;39836;52.754;6.866;2023-02-11T17:01:43;8.80;79.60
53926;DHT22;39836;52.754;6.866;2023-02-11T22:16:50;6.30;81.20
53926;DHT22;39836;52.754;6.866;2023-02-11T22:19:16;6.40;81.10
53926;DHT22;39836;52.754;6.866;2023-02-11T22:21:43;6.40;81.20
53926;DHT22;39836;52.754;6.866;2023-02-11T22:24:08;6.50;81.30
53926;DHT22;39836;52.754;6.866;2023-02-11T22:26:34;6.50;81.20
53926;DHT22;39836;52.754;6.866;2023-02-11T22:29:00;6.60;81.30
53926;DHT22;39836;52.754;6.866;2023-02-11T22:31:29;6.50;81.30
53926;DHT22;39836;52.754;6.866;2023-02-11T22:33:55;6.60;81.50
53926;DHT22;39836;52.754;6.866;2023-02-11T22:36:30;6.60;81.60
53926;DHT22;39836;52.754;6.866;2023-02-11T22:39:00;6.60;81.80
53926;DHT22;39836;52.754;6.866;2023-02-11T22:41:26;6.60;81.90
53926;DHT22;39836;52.754;6.866;2023-02-11T22:43:52;6.70;82.10
53926;DHT22;39836;52.754;6.866;2023-02-11T22:46:18;6.70;82.10
53926;DHT22;39836;52.754;6.866;2023-02-11T22:48:45;6.70;82.30
53926;DHT22;39836;52.754;6.866;2023-02-11T22:51:14;6.80;82.30
53926;DHT22;39836;52.754;6.866;2023-02-11T22:53:40;6.80;82.40
53926;DHT22;39836;52.754;6.866;2023-02-11T22:56:10;6.80;82.40
53926;DHT22;39836;52.754;6.866;2023-02-11T22:58:39;6.80;82.50
53926;DHT22;39836;52.754;6.866;2023-02-11T23:01:05;6.80;82.40
53926;DHT22;39836;52.754;6.866;2023-02-11T23:03:31;6.80;82.40
53926;DHT22;39836;52.754;6.866;2023-02-11T23:05:58;6.90;82.50
53926;DHT22;39836;52.754;6.866;2023-02-11T23:08:25;6.90;82.60
53926;DHT22;39836;52.754;6.866;2023-02-11T23:10:51;6.90;82.50
53926;DHT22;39836;52.754;6.866;2023-02-11T23:13:17;6.90;82.60
53926;DHT22;39836;52.754;6.866;2023-02-11T23:15:44;6.90;82.60
53926;DHT22;39836;52.754;6.866;2023-02-11T23:18:10;6.90;82.60
53926;DHT22;39836;52.754;6.866;2023-02-11T23:20:38;6.90;82.60
53926;DHT22;39836;52.754;6.866;2023-02-11T23:23:05;6.90;82.60
53926;DHT22;39836;52.754;6.866;2023-02-11T23:25:31;6.90;82.40
53926;DHT22;39836;52.754;6.866;2023-02-11T23:27:57;6.90;82.40
53926;DHT22;39836;52.754;6.866;2023-02-11T23:30:23;6.90;82.30
53926;DHT22;39836;52.754;6.866;2023-02-11T23:32:50;6.90;82.30
53926;DHT22;39836;52.754;6.866;2023-02-11T23:35:16;6.80;82.20
53926;DHT22;39836;52.754;6.866;2023-02-11T23:37:48;6.80;82.20
53926;DHT22;39836;52.754;6.866;2023-02-11T23:40:14;6.80;82.20
53926;DHT22;39836;52.754;6.866;2023-02-11T23:42:39;6.80;82.20
53926;DHT22;39836;52.754;6.866;2023-02-11T23:45:06;6.80;82.20
53926;DHT22;39836;52.754;6.866;2023-02-11T23:47:32;6.80;82.20
53926;DHT22;39836;52.754;6.866;2023-02-11T23:49:58;6.80;82.10
53926;DHT22;39836;52.754;6.866;2023-02-11T23:52:24;6.80;82.10
53926;DHT22;39836;52.754;6.866;2023-02-11T23:54:50;6.70;82.00
53926;DHT22;39836;52.754;6.866;2023-02-11T23:57:15;6.70;82.00